createdAt,value
2022-07-30T00:01:43.071Z,10.93
2022-07-30T00:04:13.122Z,10.27
2022-07-30T00:06:41.411Z,10.73
2022-07-30T00:09:09.678Z,9.97
2022-07-30T00:11:38.144Z,10.00
2022-07-30T00:14:06.854Z,10.10
2022-07-30T00:16:35.264Z,10.40
2022-07-30T00:19:03.832Z,10.20
2022-07-30T00:21:38.514Z,9.83
2022-07-30T00:24:08.819Z,9.60
2022-07-30T00:26:37.101Z,10.20
2022-07-30T00:29:05.530Z,10.40
2022-07-30T00:31:34.093Z,10.47
2022-07-30T00:34:02.313Z,10.30
2022-07-30T00:36:30.676Z,9.57
2022-07-30T00:39:00.533Z,9.80
2022-07-30T00:41:29.054Z,10.50
2022-07-30T00:43:57.423Z,9.87
2022-07-30T00:46:27.185Z,9.73
2022-07-30T00:48:55.447Z,9.53
2022-07-30T00:51:24.383Z,10.27
2022-07-30T00:53:52.876Z,9.37
2022-07-30T00:56:22.575Z,10.63
2022-07-30T00:58:50.818Z,10.17
2022-07-30T01:01:19.578Z,9.57
2022-07-30T01:03:48.017Z,9.87
2022-07-30T01:06:16.514Z,9.50
2022-07-30T01:08:45.060Z,10.27
2022-07-30T01:11:13.665Z,10.63
2022-07-30T01:13:43.513Z,11.17
2022-07-30T01:16:12.090Z,10.60
2022-07-30T01:18:59.888Z,9.80
2022-07-30T01:21:36.322Z,9.47
2022-07-30T01:24:19.855Z,9.53
2022-07-30T01:26:52.017Z,10.07
2022-07-30T01:29:20.877Z,10.57
2022-07-30T01:31:50.491Z,10.70
2022-07-30T01:34:21.053Z,11.63
2022-07-30T01:36:50.065Z,11.33
2022-07-30T01:39:20.605Z,11.27
2022-07-30T01:41:52.147Z,12.27
2022-07-30T01:44:23.710Z,12.10
2022-07-30T01:46:53.180Z,11.57
2022-07-30T01:49:24.371Z,11.67
2022-07-30T01:51:53.646Z,12.90
2022-07-30T01:54:25.296Z,13.60
2022-07-30T01:56:59.369Z,12.70
2022-07-30T01:59:29.521Z,12.97
2022-07-30T02:01:57.877Z,12.90
2022-07-30T02:04:27.334Z,13.53
2022-07-30T02:07:02.872Z,13.20
2022-07-30T02:09:47.265Z,13.50
2022-07-30T02:12:32.258Z,12.80
2022-07-30T02:15:13.130Z,12.53
2022-07-30T02:17:45.433Z,11.83
2022-07-30T02:20:16.633Z,12.17
2022-07-30T02:22:49.958Z,12.87
2022-07-30T02:25:21.993Z,11.63
2022-07-30T02:27:55.934Z,13.77
2022-07-30T02:30:28.077Z,14.10
2022-07-30T02:33:01.566Z,14.73
2022-07-30T02:35:31.661Z,14.13
2022-07-30T02:38:01.565Z,14.83
2022-07-30T02:40:30.930Z,15.07
2022-07-30T02:43:01.727Z,14.53
2022-07-30T02:45:31.841Z,15.80
2022-07-30T02:48:02.953Z,16.57
2022-07-30T02:50:31.947Z,15.23
2022-07-30T02:53:02.195Z,15.83
2022-07-30T02:55:33.751Z,15.07
2022-07-30T02:58:05.637Z,15.43
2022-07-30T03:00:36.027Z,16.27
2022-07-30T03:03:07.440Z,15.60
2022-07-30T03:05:37.533Z,16.03
2022-07-30T03:08:08.478Z,15.57
2022-07-30T03:10:38.382Z,15.90
2022-07-30T03:13:10.774Z,15.67
2022-07-30T03:15:43.776Z,15.23
2022-07-30T03:18:14.799Z,14.83
2022-07-30T03:20:46.149Z,14.60
2022-07-30T03:23:17.886Z,13.97
2022-07-30T03:25:49.860Z,14.73
2022-07-30T03:28:25.784Z,17.35
2022-07-30T03:30:54.704Z,15.20
2022-07-30T03:33:24.625Z,15.23
2022-07-30T03:36:08.249Z,15.97
2022-07-30T03:38:38.748Z,14.77
2022-07-30T03:41:08.503Z,14.03
2022-07-30T03:43:40.675Z,14.80
2022-07-30T03:46:11.022Z,14.80
2022-07-30T03:48:40.870Z,15.47
2022-07-30T03:51:10.814Z,14.30
2022-07-30T03:53:41.347Z,15.03
2022-07-30T03:56:10.428Z,15.23
2022-07-30T03:58:40.513Z,16.70
2022-07-30T04:01:08.980Z,16.83
2022-07-30T04:03:37.433Z,16.70
2022-07-30T04:06:06.261Z,15.27
2022-07-30T04:08:35.134Z,15.57
2022-07-30T04:11:03.458Z,16.47
2022-07-30T04:13:31.822Z,16.23
2022-07-30T04:16:38.873Z,16.03
2022-07-30T04:18:58.702Z,16.97
2022-07-30T04:21:28.202Z,15.77
2022-07-30T04:24:03.133Z,15.93
2022-07-30T04:26:35.901Z,15.30
2022-07-30T04:29:06.933Z,15.63
2022-07-30T04:31:38.350Z,15.13
2022-07-30T04:34:10.087Z,16.30
2022-07-30T04:36:38.486Z,16.77
2022-07-30T04:39:06.798Z,16.63
2022-07-30T04:41:48.113Z,15.20
2022-07-30T04:44:19.226Z,15.47
2022-07-30T04:46:49.455Z,14.90
2022-07-30T04:49:20.425Z,16.07
2022-07-30T04:51:50.319Z,16.43
2022-07-30T04:54:21.951Z,16.00
2022-07-30T04:56:53.567Z,14.93
2022-07-30T04:59:26.552Z,16.37
2022-07-30T05:01:59.951Z,16.13
2022-07-30T05:04:30.076Z,16.23
2022-07-30T05:06:59.634Z,15.80
2022-07-30T05:09:28.758Z,16.27
2022-07-30T05:11:59.521Z,15.87
2022-07-30T05:14:28.702Z,14.10
2022-07-30T05:16:59.109Z,13.30
2022-07-30T05:19:27.935Z,13.33
2022-07-30T05:21:56.339Z,12.87
2022-07-30T05:24:24.816Z,13.37
2022-07-30T05:26:53.558Z,13.30
2022-07-30T05:29:21.764Z,11.37
2022-07-30T05:31:51.610Z,12.83
2022-07-30T05:34:21.931Z,12.70
2022-07-30T05:36:51.093Z,12.07
2022-07-30T05:39:19.974Z,13.30
2022-07-30T05:41:48.984Z,13.00
2022-07-30T05:44:20.798Z,13.20
2022-07-30T05:46:52.368Z,13.87
2022-07-30T05:49:23.021Z,14.10
2022-07-30T05:51:52.095Z,15.00
2022-07-30T05:54:20.339Z,15.93
2022-07-30T05:56:53.050Z,16.80
2022-07-30T05:59:22.129Z,17.90
2022-07-30T06:01:50.816Z,17.87
2022-07-30T06:04:19.496Z,16.87
2022-07-30T06:06:49.733Z,18.47
2022-07-30T06:09:17.921Z,18.20
2022-07-30T06:11:54.932Z,17.60
2022-07-30T06:14:25.820Z,16.97
2022-07-30T06:16:54.139Z,17.07
2022-07-30T06:19:22.605Z,17.17
2022-07-30T06:22:06.344Z,16.60
2022-07-30T06:24:35.714Z,14.93
2022-07-30T06:27:04.426Z,14.30
2022-07-30T06:29:32.893Z,13.97
2022-07-30T06:32:01.300Z,15.50
2022-07-30T06:34:31.037Z,14.00
2022-07-30T06:37:01.595Z,13.40
2022-07-30T06:39:57.902Z,13.03
2022-07-30T06:42:19.863Z,13.00
2022-07-30T06:44:48.111Z,12.37
2022-07-30T06:47:21.780Z,11.83
2022-07-30T06:49:50.082Z,10.90
2022-07-30T06:52:20.113Z,11.83
2022-07-30T06:54:49.154Z,11.73
2022-07-30T06:57:18.037Z,12.00
2022-07-30T06:59:56.771Z,11.60
2022-07-30T07:02:28.262Z,11.30
2022-07-30T07:04:56.611Z,10.27
2022-07-30T07:07:40.726Z,10.77
2022-07-30T07:10:11.070Z,10.47
2022-07-30T07:15:51.806Z,11.17
2022-07-30T07:18:20.851Z,10.50
2022-07-30T07:20:49.325Z,9.40
2022-07-30T07:23:19.825Z,9.63
2022-07-30T07:25:48.464Z,9.70
2022-07-30T07:28:16.957Z,8.83
2022-07-30T07:30:46.055Z,8.83
2022-07-30T07:33:15.570Z,9.20
2022-07-30T07:35:49.696Z,9.83
2022-07-30T07:38:20.197Z,9.00
2022-07-30T07:40:49.453Z,9.40
2022-07-30T07:43:18.592Z,9.37
2022-07-30T07:45:52.069Z,8.80
2022-07-30T07:48:22.045Z,7.70
2022-07-30T07:50:50.786Z,6.67
2022-07-30T07:53:32.857Z,6.83
2022-07-30T07:56:18.475Z,7.50
2022-07-30T08:02:12.023Z,6.27
2022-07-30T08:04:43.744Z,5.80
2022-07-30T08:07:22.327Z,5.27
2022-07-30T08:10:06.136Z,5.63
2022-07-30T08:12:39.506Z,5.67
2022-07-30T08:15:13.030Z,5.00
2022-07-30T08:17:55.152Z,4.60
2022-07-30T08:20:38.200Z,4.10
2022-07-30T08:23:07.926Z,4.57
2022-07-30T08:26:21.011Z,4.53
2022-07-30T08:28:54.663Z,4.50
2022-07-30T08:34:34.951Z,4.63
2022-07-30T08:37:10.185Z,4.80
2022-07-30T08:39:38.379Z,4.53
2022-07-30T08:42:16.896Z,5.73
2022-07-30T08:44:48.345Z,5.43
2022-07-30T08:51:12.072Z,4.80
2022-07-30T08:53:49.729Z,4.87
2022-07-30T08:56:22.023Z,4.77
2022-07-30T08:59:03.478Z,5.00
2022-07-30T09:01:41.257Z,4.90
2022-07-30T09:07:41.524Z,4.47
2022-07-30T09:10:11.872Z,4.63
2022-07-30T09:16:12.056Z,4.70
2022-07-30T09:18:45.398Z,4.60
2022-07-30T09:21:20.871Z,4.53
2022-07-30T09:24:03.707Z,4.73
2022-07-30T09:26:34.527Z,4.60
2022-07-30T09:29:17.341Z,5.00
2022-07-30T09:32:05.725Z,4.40
2022-07-30T09:34:39.904Z,4.60
2022-07-30T09:37:19.798Z,4.37
2022-07-30T09:39:58.718Z,4.67
2022-07-30T09:42:36.715Z,4.80
2022-07-30T09:45:15.619Z,4.43
2022-07-30T09:47:49.503Z,4.30
2022-07-30T09:50:30.535Z,4.70
2022-07-30T09:53:15.704Z,5.10
2022-07-30T09:56:16.057Z,4.83
2022-07-30T10:02:36.431Z,5.10
2022-07-30T10:05:20.416Z,4.95
2022-07-30T10:07:52.431Z,4.53
2022-07-30T10:10:27.385Z,4.53
2022-07-30T10:13:01.147Z,4.67
2022-07-30T10:15:58.805Z,4.10
2022-07-30T10:21:44.026Z,3.97
2022-07-30T10:24:17.639Z,3.70
2022-07-30T10:27:02.239Z,3.90
2022-07-30T10:29:42.529Z,3.73
2022-07-30T10:35:41.070Z,3.80
2022-07-30T10:38:27.124Z,3.40
2022-07-30T10:41:22.141Z,3.53
2022-07-30T10:52:17.687Z,3.20
2022-07-30T10:55:20.493Z,3.70
2022-07-30T11:01:32.655Z,3.30
2022-07-30T11:07:38.153Z,3.17
2022-07-30T11:10:26.642Z,3.33
2022-07-30T11:14:24.280Z,3.30
2022-07-30T11:21:32.498Z,3.43
2022-07-30T11:24:04.112Z,3.20
2022-07-30T11:29:55.032Z,2.90
2022-07-30T11:32:31.999Z,3.00
2022-07-30T11:35:24.265Z,3.10
2022-07-30T11:38:12.185Z,3.20
2022-07-30T11:41:10.797Z,3.20
2022-07-30T11:43:43.033Z,3.27
2022-07-30T11:46:15.791Z,3.13
2022-07-30T11:53:31.440Z,2.93
2022-07-30T11:56:07.058Z,3.47
2022-07-30T11:59:04.583Z,3.00
2022-07-30T12:01:37.362Z,2.67
2022-07-30T12:04:24.137Z,2.97
2022-07-30T12:07:21.421Z,3.37
2022-07-30T12:10:16.879Z,3.07
2022-07-30T12:13:15.500Z,2.80
2022-07-30T12:16:01.638Z,3.13
2022-07-30T12:19:06.159Z,2.93
2022-07-30T12:21:49.595Z,2.87
2022-07-30T12:24:29.181Z,2.83
2022-07-30T12:27:06.800Z,3.13
2022-07-30T12:30:36.955Z,3.07
2022-07-30T12:33:53.210Z,6.70
2022-07-30T12:40:25.223Z,3.13
2022-07-30T12:46:15.276Z,3.03
2022-07-30T12:48:54.362Z,3.57
2022-07-30T12:51:24.354Z,29.10
2022-07-30T12:54:28.778Z,6.60
2022-07-30T12:57:27.458Z,3.40
2022-07-30T13:00:10.726Z,3.20
2022-07-30T13:06:48.360Z,2.80
2022-07-30T13:09:22.042Z,3.50
2022-07-30T13:12:06.533Z,2.80
2022-07-30T13:17:42.162Z,2.77
2022-07-30T13:20:14.323Z,2.83
2022-07-30T13:22:43.565Z,2.50
2022-07-30T13:28:47.106Z,3.40
2022-07-30T13:31:59.892Z,3.47
2022-07-30T13:34:29.604Z,3.83
2022-07-30T13:38:15.544Z,4.00
2022-07-30T13:41:02.203Z,3.67
2022-07-30T13:43:35.890Z,3.40
2022-07-30T13:46:11.567Z,2.80
2022-07-30T13:48:45.137Z,3.43
2022-07-30T13:51:16.691Z,3.50
2022-07-30T13:53:44.936Z,3.13
2022-07-30T13:56:19.638Z,3.17
2022-07-30T13:59:05.589Z,3.63
2022-07-30T14:01:47.814Z,3.40
2022-07-30T14:07:40.556Z,3.67
2022-07-30T14:10:13.680Z,4.03
2022-07-30T14:13:03.070Z,3.30
2022-07-30T14:15:37.034Z,3.40
2022-07-30T14:18:07.232Z,3.30
2022-07-30T14:20:38.987Z,3.50
2022-07-30T14:23:09.968Z,3.90
2022-07-30T14:25:40.800Z,3.87
2022-07-30T14:28:15.201Z,3.47
2022-07-30T14:30:45.249Z,3.37
2022-07-30T14:33:13.808Z,3.50
2022-07-30T14:35:42.266Z,3.30
2022-07-30T14:38:11.249Z,3.70
2022-07-30T14:40:41.575Z,3.30
2022-07-30T14:43:10.069Z,3.30
2022-07-30T14:45:39.429Z,3.00
2022-07-30T14:48:35.692Z,3.27
2022-07-30T14:52:01.569Z,2.90
2022-07-30T14:54:33.788Z,3.33
2022-07-30T14:57:13.651Z,3.43
2022-07-30T14:59:45.253Z,3.20
2022-07-30T15:02:23.598Z,3.23
2022-07-30T15:04:55.002Z,3.20
2022-07-30T15:07:24.813Z,2.70
2022-07-30T15:09:56.466Z,3.47
2022-07-30T15:12:40.091Z,3.40
2022-07-30T15:21:27.849Z,3.10
2022-07-30T15:23:58.067Z,3.13
2022-07-30T15:26:50.409Z,3.57
2022-07-30T15:29:24.238Z,3.63
2022-07-30T15:31:56.727Z,3.70
2022-07-30T15:34:34.289Z,2.90
2022-07-30T15:44:03.226Z,3.50
2022-07-30T15:46:39.917Z,3.10
2022-07-30T15:52:55.319Z,4.00
2022-07-30T16:02:58.817Z,2.53
2022-07-30T16:05:52.247Z,3.17
2022-07-30T16:08:32.214Z,3.67
2022-07-30T16:11:16.197Z,3.67
2022-07-30T16:13:51.118Z,3.17
2022-07-30T16:16:27.441Z,3.87
2022-07-30T16:18:56.588Z,4.00
2022-07-30T16:21:28.253Z,3.27
2022-07-30T16:27:44.908Z,3.10
2022-07-30T16:30:14.536Z,3.27
2022-07-30T16:32:42.816Z,3.10
2022-07-30T16:35:13.315Z,3.40
2022-07-30T16:37:43.438Z,3.23
2022-07-30T16:40:14.174Z,3.40
2022-07-30T16:42:42.434Z,3.30
2022-07-30T16:45:17.517Z,3.07
2022-07-30T16:47:59.261Z,3.30
2022-07-30T16:50:31.142Z,3.40
2022-07-30T16:53:09.496Z,3.33
2022-07-30T16:55:44.416Z,3.43
2022-07-30T16:58:21.295Z,3.60
2022-07-30T17:00:50.212Z,3.43
2022-07-30T17:03:26.234Z,3.70
2022-07-30T17:06:04.958Z,3.60
2022-07-30T17:08:34.726Z,3.40
2022-07-30T17:11:02.880Z,3.40
2022-07-30T17:13:38.802Z,3.20
2022-07-30T17:16:10.925Z,3.20
2022-07-30T17:18:56.849Z,3.47
2022-07-30T17:21:40.855Z,2.90
2022-07-30T17:24:40.583Z,3.87
2022-07-30T17:27:08.986Z,24.93
2022-07-30T17:29:49.699Z,5.87
2022-07-30T17:32:48.458Z,3.73
2022-07-30T17:35:17.951Z,3.37
2022-07-30T17:42:01.955Z,3.10
2022-07-30T17:45:00.300Z,3.57
2022-07-30T17:47:31.282Z,3.67
2022-07-30T17:50:06.810Z,3.67
2022-07-30T17:52:47.249Z,3.50
2022-07-30T17:55:41.932Z,3.43
2022-07-30T17:58:39.058Z,3.30
2022-07-30T18:01:17.882Z,3.70
2022-07-30T18:09:55.994Z,3.87
2022-07-30T18:12:24.378Z,3.77
2022-07-30T18:14:52.863Z,3.50
2022-07-30T18:17:33.195Z,4.20
2022-07-30T18:20:08.783Z,3.73
2022-07-30T18:22:40.417Z,3.87
2022-07-30T18:25:51.559Z,3.80
2022-07-30T18:28:32.796Z,3.90
2022-07-30T18:31:03.742Z,4.60
2022-07-30T18:33:35.961Z,3.83
2022-07-30T18:36:13.572Z,4.00
2022-07-30T18:39:21.720Z,4.07
2022-07-30T18:42:14.446Z,3.77
2022-07-30T18:44:43.550Z,3.77
2022-07-30T18:47:12.527Z,4.00
2022-07-30T18:49:42.148Z,3.87
2022-07-30T18:52:12.161Z,3.97
2022-07-30T18:54:50.170Z,4.27
2022-07-30T18:57:21.564Z,3.50
2022-07-30T18:59:51.166Z,3.67
2022-07-30T19:02:19.390Z,3.97
2022-07-30T19:05:37.087Z,4.10
2022-07-30T19:08:55.429Z,3.90
2022-07-30T19:11:25.689Z,4.17
2022-07-30T19:13:55.346Z,4.07
2022-07-30T19:16:25.148Z,4.27
2022-07-30T19:18:53.823Z,4.50
2022-07-30T19:21:23.748Z,4.00
2022-07-30T19:24:00.908Z,4.43
2022-07-30T19:26:48.485Z,4.47
2022-07-30T19:30:06.834Z,4.20
2022-07-30T19:32:37.288Z,3.70
2022-07-30T19:35:13.398Z,4.00
2022-07-30T19:37:45.349Z,4.33
2022-07-30T19:40:15.034Z,3.80
2022-07-30T19:42:51.589Z,4.20
2022-07-30T19:45:27.349Z,4.23
2022-07-30T19:52:11.218Z,4.20
2022-07-30T19:54:40.791Z,4.20
2022-07-30T19:57:12.306Z,4.07
2022-07-30T19:59:59.621Z,4.43
2022-07-30T20:02:38.822Z,4.67
2022-07-30T20:05:54.861Z,4.57
2022-07-30T20:08:25.088Z,5.00
2022-07-30T20:11:16.423Z,4.17
2022-07-30T20:14:05.079Z,4.23
2022-07-30T20:16:40.122Z,4.30
2022-07-30T20:19:08.627Z,4.80
2022-07-30T20:21:56.643Z,5.30
2022-07-30T20:24:27.242Z,5.30
2022-07-30T20:26:58.476Z,5.07
2022-07-30T20:29:26.614Z,5.33
2022-07-30T20:31:59.162Z,6.03
2022-07-30T20:34:37.843Z,6.40
2022-07-30T20:40:06.859Z,6.17
2022-07-30T20:42:38.715Z,6.20
2022-07-30T20:45:14.164Z,5.57
2022-07-30T20:48:25.752Z,4.80
2022-07-30T20:50:55.154Z,5.87
2022-07-30T20:53:24.254Z,6.07
2022-07-30T20:56:06.110Z,5.40
2022-07-30T20:58:39.069Z,5.53
2022-07-30T21:01:09.067Z,5.17
2022-07-30T21:04:00.384Z,5.97
2022-07-30T21:06:28.913Z,6.03
2022-07-30T21:08:58.566Z,6.03
2022-07-30T21:11:27.641Z,6.37
2022-07-30T21:13:56.613Z,6.33
2022-07-30T21:16:37.522Z,5.80
2022-07-30T21:19:18.523Z,5.87
2022-07-30T21:21:52.048Z,5.27
2022-07-30T21:24:22.040Z,5.80
2022-07-30T21:26:54.209Z,5.30
2022-07-30T21:29:44.337Z,5.37
2022-07-30T21:32:15.327Z,5.30
2022-07-30T21:35:08.053Z,5.07
2022-07-30T21:37:38.156Z,5.10
2022-07-30T21:40:12.576Z,4.97
2022-07-30T21:42:55.677Z,5.53
2022-07-30T21:45:43.683Z,5.47
2022-07-30T21:48:35.564Z,5.57
2022-07-30T21:51:05.530Z,5.40
2022-07-30T21:56:26.680Z,5.17
2022-07-30T21:58:57.257Z,5.73
2022-07-30T22:04:59.366Z,5.67
2022-07-30T22:07:40.657Z,5.67
2022-07-30T22:10:22.909Z,5.53
2022-07-30T22:16:13.071Z,5.80
2022-07-30T22:18:44.906Z,5.80
2022-07-30T22:21:14.964Z,5.47
2022-07-30T22:23:54.831Z,5.40
2022-07-30T22:26:26.981Z,5.43
2022-07-30T22:35:20.689Z,5.23
2022-07-30T22:38:01.204Z,5.67
2022-07-30T22:41:15.321Z,5.37
2022-07-30T22:43:54.736Z,5.80
2022-07-30T22:46:47.154Z,5.93
2022-07-30T22:49:45.866Z,5.57
2022-07-30T22:52:25.455Z,5.30
2022-07-30T22:57:40.688Z,5.40
2022-07-30T23:00:28.185Z,5.13
2022-07-30T23:03:04.383Z,5.50
2022-07-30T23:05:37.515Z,4.97
2022-07-30T23:08:09.570Z,5.00
2022-07-30T23:10:38.357Z,5.20
2022-07-30T23:13:12.765Z,5.07
2022-07-30T23:15:42.816Z,5.77
2022-07-30T23:18:11.187Z,8.00
2022-07-30T23:20:40.874Z,5.17
2022-07-30T23:23:11.846Z,5.30
2022-07-30T23:25:40.633Z,5.10
2022-07-30T23:28:11.725Z,4.90
2022-07-30T23:37:28.628Z,5.20
2022-07-30T23:40:09.586Z,5.33
2022-07-30T23:42:38.539Z,5.30
2022-07-30T23:45:08.132Z,5.03
2022-07-30T23:48:01.842Z,5.53
2022-07-30T23:50:29.523Z,5.23
2022-07-30T23:52:57.828Z,5.70
2022-07-30T23:55:27.127Z,5.23
2022-07-30T23:58:00.424Z,5.20
